Time;durP1;ratioP1;P1;durP2;ratioP2;P2;SDS_P1;SDS_P2;PMS_P1;PMS_P2;Temp;Humidity;BMP_temperature;BMP_pressure;BME280_temperature;BME280_humidity;BME280_pressure;Samples;Min_cycle;Max_cycle;Signal;HPM_P1;HPM_P2
2021/12/08 00:01:04;;;;;;;42.65;29.20;;;6.10;59.90;;;;;;5111707;28;20483;-71
2021/12/08 00:03:30;;;;;;;43.67;29.10;;;6.10;60.30;;;;;;5113080;28;20016;-71
2021/12/08 00:05:57;;;;;;;47.13;30.45;;;5.90;60.00;;;;;;5111667;28;20111;-70
2021/12/08 00:08:27;;;;;;;44.53;29.88;;;5.90;60.60;;;;;;5112910;28;20125;-71
2021/12/08 00:13:24;;;;;;;40.53;29.15;;;5.80;60.80;;;;;;5113229;28;20039;-71
2021/12/08 00:15:54;;;;;;;39.50;27.13;;;5.80;60.70;;;;;;5113170;28;20031;-71
2021/12/08 00:18:23;;;;;;;37.08;26.55;;;5.70;60.30;;;;;;5111458;28;20096;-71
2021/12/08 00:20:52;;;;;;;40.92;26.63;;;5.70;60.50;;;;;;5113188;28;20035;-71
2021/12/08 00:23:19;;;;;;;39.30;25.52;;;5.70;60.60;;;;;;5113078;28;20065;-71
2021/12/08 00:25:45;;;;;;;37.20;25.67;;;5.70;60.40;;;;;;5111856;28;20028;-72
2021/12/08 00:28:12;;;;;;;37.42;26.50;;;5.70;60.70;;;;;;5112740;28;20115;-71
2021/12/08 00:30:40;;;;;;;36.15;23.98;;;5.70;60.60;;;;;;5113052;28;20080;-71
2021/12/08 00:33:07;;;;;;;36.38;22.90;;;5.60;60.90;;;;;;5113253;28;20016;-70
2021/12/08 00:35:34;;;;;;;29.65;21.42;;;5.60;61.10;;;;;;5111737;28;20026;-70
2021/12/08 00:38:00;;;;;;;28.88;20.95;;;5.50;60.90;;;;;;5112782;28;20032;-70
2021/12/08 00:40:28;;;;;;;35.05;21.40;;;5.50;60.60;;;;;;5112976;28;20089;-71
2021/12/08 00:42:55;;;;;;;31.58;20.33;;;5.50;60.60;;;;;;5111707;28;20136;-70
2021/12/08 00:45:21;;;;;;;30.08;19.45;;;5.50;60.90;;;;;;5113375;28;20024;-71
2021/12/08 00:47:48;;;;;;;31.02;19.42;;;5.40;60.50;;;;;;5112898;28;20040;-71
2021/12/08 00:50:16;;;;;;;29.98;18.33;;;5.40;60.70;;;;;;5113069;28;20020;-70
2021/12/08 00:52:42;;;;;;;29.88;17.83;;;5.40;60.80;;;;;;5112569;28;20038;-71
2021/12/08 00:55:10;;;;;;;28.13;18.63;;;5.40;61.10;;;;;;5114761;28;20497;-70
2021/12/08 00:57:37;;;;;;;26.85;18.17;;;5.40;60.60;;;;;;5116285;28;20157;-70
2021/12/08 01:00:25;;;;;;;28.40;18.02;;;5.30;60.20;;;;;;5116519;28;20356;-70
2021/12/08 01:02:51;;;;;;;30.38;17.83;;;5.30;60.50;;;;;;5116911;28;20019;-70
2021/12/08 01:05:25;;;;;;;33.65;18.60;;;5.30;60.60;;;;;;5117402;28;20471;-69
2021/12/08 01:07:51;;;;;;;33.03;16.50;;;5.30;60.50;;;;;;5116369;28;20035;-71
2021/12/08 01:10:23;;;;;;;28.77;15.55;;;5.30;60.50;;;;;;5116301;27;20411;-70
2021/12/08 01:12:50;;;;;;;26.08;14.75;;;5.20;60.50;;;;;;5114725;28;20031;-70
2021/12/08 01:15:17;;;;;;;26.30;15.73;;;5.20;60.40;;;;;;5116190;28;20452;-71
2021/12/08 01:17:43;;;;;;;23.67;14.40;;;5.10;60.20;;;;;;5114696;28;20019;-69
2021/12/08 01:20:12;;;;;;;26.02;15.40;;;5.10;60.40;;;;;;5116030;27;20521;-70
2021/12/08 01:22:38;;;;;;;21.17;14.13;;;5.10;60.60;;;;;;5115947;28;20133;-70
2021/12/08 01:25:05;;;;;;;25.85;15.68;;;5.00;60.60;;;;;;5114610;28;20464;-71
2021/12/08 01:27:32;;;;;;;23.08;14.25;;;5.10;60.80;;;;;;5114304;28;20035;-72
2021/12/08 01:29:59;;;;;;;21.52;14.02;;;5.10;60.40;;;;;;5114408;28;20054;-70
2021/12/08 01:32:25;;;;;;;23.10;13.60;;;5.20;60.40;;;;;;5115769;28;20062;-70
2021/12/08 01:34:52;;;;;;;20.33;12.38;;;5.20;60.10;;;;;;5115672;28;20460;-71
2021/12/08 01:37:19;;;;;;;23.98;13.00;;;5.20;60.40;;;;;;5115575;28;20024;-70
2021/12/08 01:39:45;;;;;;;18.90;12.32;;;5.20;60.00;;;;;;5115511;28;20035;-70
2021/12/08 01:42:16;;;;;;;19.10;12.20;;;5.20;59.80;;;;;;5115442;28;20392;-71
2021/12/08 01:47:28;;;;;;;19.75;11.30;;;5.30;59.90;;;;;;5114433;28;20050;-71
2021/12/08 01:49:54;;;;;;;18.08;10.52;;;5.40;59.70;;;;;;5115490;28;20029;-72
2021/12/08 01:52:20;;;;;;;21.35;11.18;;;5.40;59.30;;;;;;5115490;28;20028;-70
2021/12/08 01:54:46;;;;;;;18.45;10.23;;;5.50;59.20;;;;;;5115586;28;20031;-70
2021/12/08 01:57:13;;;;;;;19.08;10.65;;;5.50;59.30;;;;;;5115089;28;20499;-71
2021/12/08 01:59:39;;;;;;;22.38;11.30;;;5.50;58.90;;;;;;5115387;28;20027;-72
2021/12/08 02:02:05;;;;;;;20.83;10.75;;;5.50;58.90;;;;;;5115347;28;20030;-71
2021/12/08 02:04:31;;;;;;;15.13;9.40;;;5.50;58.90;;;;;;5114895;28;20085;-70
2021/12/08 02:06:58;;;;;;;20.58;9.50;;;5.60;58.90;;;;;;5114800;28;20407;-71
2021/12/08 02:09:24;;;;;;;19.15;9.95;;;5.60;58.80;;;;;;5115020;28;20388;-70
2021/12/08 02:11:53;;;;;;;18.05;9.50;;;5.70;58.80;;;;;;5114948;28;20015;-72
2021/12/08 02:14:19;;;;;;;18.55;10.00;;;5.70;58.70;;;;;;5115097;28;20059;-70
2021/12/08 02:16:47;;;;;;;17.45;10.10;;;5.70;58.60;;;;;;5114918;28;20015;-71
2021/12/08 02:19:13;;;;;;;15.90;9.18;;;5.80;58.30;;;;;;5114701;28;20370;-70
2021/12/08 02:21:41;;;;;;;13.35;8.90;;;5.80;58.40;;;;;;5114822;28;20095;-71
2021/12/08 02:24:13;;;;;;;15.80;8.57;;;5.90;58.10;;;;;;5114865;28;20583;-71
2021/12/08 02:26:42;;;;;;;16.45;10.30;;;5.80;57.40;;;;;;5114903;28;20102;-71
2021/12/08 02:29:12;;;;;;;14.65;9.05;;;5.80;57.70;;;;;;5114608;28;20031;-71
2021/12/08 02:31:48;;;;;;;19.67;9.48;;;5.80;57.80;;;;;;5114658;28;20023;-70
2021/12/08 02:47:57;;;;;;;16.23;8.70;;;5.50;58.60;;;;;;5114055;28;20127;-71
2021/12/08 02:50:32;;;;;;;13.07;8.13;;;5.60;58.70;;;;;;5114142;28;20047;-71
2021/12/08 02:52:59;;;;;;;13.00;8.00;;;5.60;58.50;;;;;;5114366;28;20020;-70
2021/12/08 02:55:27;;;;;;;15.55;8.30;;;5.60;58.50;;;;;;5114321;28;20020;-70
2021/12/08 02:57:53;;;;;;;13.30;7.70;;;5.60;58.40;;;;;;5114060;28;20051;-72
2021/12/08 03:00:24;;;;;;;14.40;7.78;;;5.60;58.40;;;;;;5112566;28;20035;-71
2021/12/08 03:02:57;;;;;;;13.55;7.70;;;5.70;58.80;;;;;;5114118;28;20443;-71
2021/12/08 03:05:24;;;;;;;11.52;8.18;;;5.80;58.30;;;;;;5113819;28;20102;-72
2021/12/08 03:07:51;;;;;;;18.70;7.78;;;5.90;58.00;;;;;;5113633;28;20114;-70
2021/12/08 03:10:20;;;;;;;15.32;7.70;;;5.90;58.10;;;;;;5113945;28;20383;-71
2021/12/08 03:12:47;;;;;;;11.93;6.88;;;5.90;57.90;;;;;;5113676;28;20035;-70
2021/12/08 03:15:14;;;;;;;10.75;7.28;;;5.90;58.00;;;;;;5113981;28;20043;-70
2021/12/08 03:17:40;;;;;;;18.23;8.23;;;5.80;57.70;;;;;;5111894;28;20024;-71
2021/12/08 03:20:11;;;;;;;10.90;7.40;;;5.90;58.20;;;;;;5113718;28;20028;-70
2021/12/08 03:22:43;;;;;;;12.52;7.75;;;6.00;58.10;;;;;;5113769;28;20098;-71
2021/12/08 03:25:12;;;;;;;11.45;6.85;;;6.10;58.10;;;;;;5112144;28;20123;-72
2021/12/08 03:27:46;;;;;;;12.93;7.38;;;6.20;57.60;;;;;;5113416;28;20086;-70
2021/12/08 03:30:16;;;;;;;14.23;7.70;;;6.20;57.30;;;;;;5113770;28;20019;-71
2021/12/08 03:32:42;;;;;;;10.05;6.53;;;6.30;57.30;;;;;;5113745;28;20019;-71
2021/12/08 03:35:12;;;;;;;14.00;7.07;;;6.40;57.30;;;;;;5112092;28;20480;-71
2021/12/08 03:37:43;;;;;;;10.10;7.10;;;6.50;57.10;;;;;;5113456;28;20502;-70
2021/12/08 03:40:15;;;;;;;10.93;6.85;;;6.60;56.50;;;;;;5112091;28;20023;-71
2021/12/08 03:42:42;;;;;;;11.82;6.88;;;6.60;56.50;;;;;;5113566;28;20487;-71
2021/12/08 03:45:12;;;;;;;12.43;7.20;;;6.70;56.00;;;;;;5113248;28;20037;-72
2021/12/08 03:47:42;;;;;;;10.32;6.53;;;6.70;56.20;;;;;;5111830;28;20063;-70
2021/12/08 03:50:11;;;;;;;9.30;6.50;;;6.60;55.90;;;;;;5112010;28;20049;-72
2021/12/08 03:52:38;;;;;;;10.93;6.70;;;6.60;56.00;;;;;;5113374;28;20077;-71
2021/12/08 03:55:06;;;;;;;9.77;6.63;;;6.50;56.10;;;;;;5113387;28;20372;-71
2021/12/08 03:57:32;;;;;;;10.43;6.32;;;6.50;56.10;;;;;;5113120;28;20130;-70
2021/12/08 03:59:58;;;;;;;10.43;6.65;;;6.50;56.50;;;;;;5113154;28;20100;-71
2021/12/08 04:02:24;;;;;;;11.80;6.75;;;6.50;56.00;;;;;;5112056;28;20114;-71
2021/12/08 04:04:51;;;;;;;10.35;6.50;;;6.50;56.00;;;;;;5113428;28;20103;-71
2021/12/08 04:07:18;;;;;;;9.50;6.15;;;6.50;56.10;;;;;;5111914;28;20028;-71
2021/12/08 04:09:48;;;;;;;9.77;6.55;;;6.50;56.00;;;;;;5113359;28;20102;-72
2021/12/08 04:12:17;;;;;;;11.27;6.82;;;6.50;55.80;;;;;;5113018;28;20094;-71
2021/12/08 04:14:51;;;;;;;11.25;6.78;;;6.50;55.90;;;;;;5113460;28;20032;-71
2021/12/08 04:17:36;;;;;;;10.88;6.63;;;6.60;56.60;;;;;;5113039;28;20027;-71
2021/12/08 04:20:12;;;;;;;10.35;6.30;;;6.60;56.70;;;;;;5112969;28;20491;-70
2021/12/08 04:22:39;;;;;;;10.90;6.20;;;6.70;55.90;;;;;;5113044;28;20096;-71
2021/12/08 04:25:23;;;;;;;10.20;6.50;;;6.80;55.90;;;;;;5111591;28;20039;-71
2021/12/08 04:27:51;;;;;;;9.90;6.70;;;6.80;55.80;;;;;;5113306;28;20387;-72
2021/12/08 04:30:26;;;;;;;9.40;5.95;;;6.80;55.30;;;;;;5115756;28;20020;-70
2021/12/08 04:32:52;;;;;;;9.23;6.05;;;6.90;55.30;;;;;;5116102;28;20020;-70
2021/12/08 04:35:20;;;;;;;13.13;6.03;;;7.00;55.50;;;;;;5117297;28;20028;-71
2021/12/08 04:37:50;;;;;;;10.90;6.60;;;7.00;55.10;;;;;;5117205;28;20039;-72
2021/12/08 04:43:08;;;;;;;10.43;6.25;;;7.00;55.20;;;;;;5117056;28;20387;-70
2021/12/08 04:45:47;;;;;;;10.75;5.90;;;7.00;54.40;;;;;;5117123;28;20024;-71
2021/12/08 05:06:44;;;;;;;8.80;5.50;;;7.40;54.30;;;;;;5116704;28;20388;-72
2021/12/08 05:09:19;;;;;;;9.93;6.15;;;7.40;53.20;;;;;;5114931;28;20380;-71
2021/12/08 05:11:50;;;;;;;10.00;5.78;;;7.50;54.00;;;;;;5116343;28;20024;-71
2021/12/08 05:14:25;;;;;;;9.70;5.95;;;7.50;52.90;;;;;;5116254;27;20031;-70
2021/12/08 05:16:58;;;;;;;9.20;5.57;;;7.60;54.10;;;;;;5116077;28;20016;-72
2021/12/08 05:19:28;;;;;;;8.25;5.45;;;7.60;52.70;;;;;;5116277;28;20077;-71
2021/12/08 05:21:55;;;;;;;8.48;5.47;;;7.60;52.80;;;;;;5114576;28;20487;-72
2021/12/08 05:24:32;;;;;;;8.27;5.32;;;7.60;52.80;;;;;;5115871;28;20066;-70
2021/12/08 05:27:07;;;;;;;8.15;4.80;;;7.70;52.40;;;;;;5115905;28;20032;-72
2021/12/08 05:29:42;;;;;;;8.10;5.18;;;7.70;52.50;;;;;;5116028;28;20027;-71
2021/12/08 05:32:09;;;;;;;9.82;4.95;;;7.80;53.30;;;;;;5115811;28;20019;-71
2021/12/08 05:34:36;;;;;;;7.57;4.75;;;7.80;52.40;;;;;;5115878;28;20038;-72
2021/12/08 05:37:04;;;;;;;7.80;4.57;;;7.80;52.20;;;;;;5115587;27;20024;-71
2021/12/08 05:39:31;;;;;;;11.40;5.15;;;7.90;51.90;;;;;;5115924;27;20028;-71
2021/12/08 05:42:07;;;;;;;8.50;4.90;;;7.90;52.20;;;;;;5113869;28;20027;-73
2021/12/08 05:44:34;;;;;;;8.65;4.68;;;7.90;52.30;;;;;;5115575;28;20030;-71
2021/12/08 05:47:03;;;;;;;12.57;4.88;;;7.90;52.30;;;;;;5115370;28;20023;-72
2021/12/08 05:49:29;;;;;;;11.23;4.90;;;8.00;52.20;;;;;;5115427;27;20076;-71
2021/12/08 05:51:56;;;;;;;6.90;4.18;;;8.00;52.00;;;;;;5115427;28;20024;-71
2021/12/08 05:54:32;;;;;;;8.68;4.75;;;8.00;51.60;;;;;;5115457;28;20056;-71
2021/12/08 05:57:03;;;;;;;8.25;4.38;;;8.00;51.60;;;;;;5115167;28;20080;-72
2021/12/08 05:59:30;;;;;;;7.93;4.65;;;8.10;51.10;;;;;;5115533;28;20421;-72
2021/12/08 06:02:00;;;;;;;8.73;4.38;;;8.10;51.40;;;;;;5115195;28;20096;-72
2021/12/08 06:04:28;;;;;;;8.45;4.65;;;8.10;50.90;;;;;;5115203;28;20145;-71
2021/12/08 06:06:54;;;;;;;11.02;4.63;;;8.20;51.00;;;;;;5113693;28;20023;-71
2021/12/08 06:09:22;;;;;;;7.85;4.93;;;8.20;50.90;;;;;;5115100;28;20393;-70
2021/12/08 06:11:49;;;;;;;7.10;4.20;;;8.20;50.60;;;;;;5113779;28;20051;-72
2021/12/08 06:14:16;;;;;;;6.97;4.07;;;8.30;51.00;;;;;;5115069;28;20050;-72
2021/12/08 06:16:45;;;;;;;6.93;4.10;;;8.30;50.60;;;;;;5114823;28;20518;-71
2021/12/08 06:19:12;;;;;;;7.82;3.78;;;8.30;50.40;;;;;;5114874;28;20036;-72
2021/12/08 06:21:38;;;;;;;9.05;4.40;;;8.30;50.20;;;;;;5115001;28;20028;-72
2021/12/08 06:24:08;;;;;;;10.07;4.60;;;8.40;50.10;;;;;;5113524;28;20030;-71
2021/12/08 06:26:34;;;;;;;7.60;4.30;;;8.40;50.40;;;;;;5114738;28;20027;-72
2021/12/08 06:29:01;;;;;;;8.57;4.10;;;8.40;50.40;;;;;;5114639;28;20040;-71
2021/12/08 06:31:28;;;;;;;6.28;3.90;;;8.40;50.20;;;;;;5114814;28;20395;-72
2021/12/08 06:33:54;;;;;;;7.38;3.83;;;8.50;50.00;;;;;;5114671;28;20384;-71
2021/12/08 06:36:32;;;;;;;6.97;3.85;;;8.40;49.90;;;;;;5114647;28;20055;-71
2021/12/08 06:38:59;;;;;;;8.20;3.92;;;8.50;49.90;;;;;;5114458;28;20028;-71
2021/12/08 06:41:48;;;;;;;7.63;4.10;;;8.50;49.70;;;;;;5114568;28;20066;-72
2021/12/08 06:44:20;;;;;;;13.20;4.18;;;8.50;49.80;;;;;;5114286;28;20082;-71
2021/12/08 06:46:46;;;;;;;7.18;3.60;;;8.60;49.90;;;;;;5114584;28;20060;-71
2021/12/08 06:49:14;;;;;;;8.32;3.90;;;8.60;49.90;;;;;;5114160;28;20503;-72
2021/12/08 06:51:44;;;;;;;11.95;4.50;;;8.60;50.00;;;;;;5113681;28;20468;-71
2021/12/08 06:54:18;;;;;;;9.88;3.90;;;8.60;49.90;;;;;;5114110;28;20380;-71
2021/12/08 06:56:50;;;;;;;6.45;3.38;;;8.70;49.70;;;;;;5112739;28;20031;-71
2021/12/08 06:59:21;;;;;;;8.05;4.05;;;8.70;50.10;;;;;;5113724;27;20385;-71
2021/12/08 07:02:07;;;;;;;6.68;3.60;;;8.70;50.20;;;;;;5113878;28;20023;-71
2021/12/08 07:05:10;;;;;;;6.10;3.70;;;8.70;50.10;;;;;;5112865;28;20028;-70
2021/12/08 07:07:38;;;;;;;6.30;3.47;;;8.80;50.40;;;;;;5114196;28;20028;-71
2021/12/08 07:10:07;;;;;;;7.28;3.38;;;8.80;50.30;;;;;;5114073;28;20064;-72
2021/12/08 07:12:40;;;;;;;6.00;3.00;;;8.80;50.60;;;;;;5114028;28;20075;-72
2021/12/08 07:15:40;;;;;;;5.78;3.17;;;8.90;50.40;;;;;;5112213;28;20464;-71
2021/12/08 07:18:13;;;;;;;7.18;3.85;;;8.90;50.70;;;;;;5080510;27;20035;-72
2021/12/08 07:20:47;;;;;;;7.20;3.65;;;9.00;50.90;;;;;;5113718;28;20035;-72
2021/12/08 07:23:24;;;;;;;;;;;9.00;50.60;;;;;;5114018;28;20025;-71
2021/12/08 07:25:52;;;;;;;7.40;3.38;;;9.00;50.80;;;;;;5113472;28;19910;-73
2021/12/08 07:28:19;;;;;;;6.22;3.53;;;9.10;51.10;;;;;;5113640;28;20122;-71
2021/12/08 07:30:54;;;;;;;6.57;3.08;;;9.10;51.20;;;;;;5113644;28;20483;-71
2021/12/08 07:33:21;;;;;;;7.75;3.60;;;9.20;51.20;;;;;;5112259;28;20062;-72
2021/12/08 07:35:50;;;;;;;6.30;3.15;;;9.20;51.30;;;;;;5113618;28;20027;-71
2021/12/08 07:38:22;;;;;;;5.18;3.03;;;9.20;51.50;;;;;;5113453;28;20049;-71
2021/12/08 07:41:02;;;;;;;4.68;2.88;;;9.20;51.40;;;;;;5113462;28;20047;-71
2021/12/08 07:43:29;;;;;;;7.82;3.50;;;9.30;51.50;;;;;;5113341;28;20027;-72
2021/12/08 07:46:03;;;;;;;8.82;3.70;;;9.30;51.50;;;;;;5112038;28;20026;-73
2021/12/08 07:48:35;;;;;;;8.02;3.58;;;9.30;51.70;;;;;;5112720;28;20094;-73
2021/12/08 07:51:11;;;;;;;6.63;3.45;;;9.30;51.70;;;;;;5111691;28;20051;-71
2021/12/08 07:53:37;;;;;;;10.27;3.35;;;9.40;51.80;;;;;;5112993;28;20431;-72
2021/12/08 07:56:07;;;;;;;5.82;3.20;;;9.50;52.00;;;;;;5111720;28;20019;-71
2021/12/08 07:58:35;;;;;;;8.18;3.55;;;9.50;52.20;;;;;;5112673;28;20044;-70
2021/12/08 08:01:09;;;;;;;7.35;3.80;;;9.50;52.30;;;;;;5113017;28;20020;-71
2021/12/08 08:03:35;;;;;;;5.97;3.20;;;9.60;52.50;;;;;;5114197;28;20055;-72
2021/12/08 08:06:06;;;;;;;6.80;4.43;;;9.60;52.80;;;;;;5117227;28;20169;-72
2021/12/08 08:08:34;;;;;;;4.85;2.90;;;9.60;52.80;;;;;;5117348;28;20042;-72
2021/12/08 08:11:07;;;;;;;7.25;4.00;;;9.70;52.70;;;;;;5117396;28;20107;-72
2021/12/08 08:13:33;;;;;;;7.32;2.97;;;9.70;52.80;;;;;;5117064;28;20566;-71
2021/12/08 08:16:07;;;;;;;11.95;4.35;;;9.70;52.80;;;;;;5117012;28;20027;-71
2021/12/08 08:18:37;;;;;;;7.50;3.22;;;9.70;53.10;;;;;;5116889;28;20065;-72
2021/12/08 08:21:09;;;;;;;7.43;3.08;;;9.80;53.20;;;;;;5116751;28;20032;-72
2021/12/08 08:23:35;;;;;;;7.22;3.35;;;9.80;53.00;;;;;;5117159;28;20031;-72
2021/12/08 08:26:05;;;;;;;9.18;3.25;;;9.90;53.20;;;;;;5115207;28;20026;-72
2021/12/08 08:28:32;;;;;;;7.78;3.67;;;10.00;52.30;;;;;;5116677;27;20043;-72
2021/12/08 08:31:15;;;;;;;5.22;2.97;;;10.00;52.20;;;;;;5117092;28;20024;-72
2021/12/08 08:33:42;;;;;;;9.77;4.22;;;10.10;52.20;;;;;;5116824;28;20026;-71
2021/12/08 08:36:16;;;;;;;9.32;3.60;;;10.10;52.30;;;;;;5116680;27;20024;-71
2021/12/08 08:38:50;;;;;;;10.63;2.88;;;10.20;52.30;;;;;;5116533;28;20057;-71
2021/12/08 08:41:28;;;;;;;7.45;3.20;;;10.20;52.20;;;;;;5116685;28;20090;-72
2021/12/08 08:43:56;;;;;;;8.00;2.85;;;10.30;52.40;;;;;;5117319;28;20028;-72
2021/12/08 08:46:26;;;;;;;5.85;2.85;;;10.30;52.20;;;;;;5116390;28;20098;-71
2021/12/08 08:48:58;;;;;;;5.18;2.60;;;10.30;52.40;;;;;;5114897;28;20038;-71
2021/12/08 08:51:42;;;;;;;8.73;2.65;;;10.30;52.20;;;;;;5116672;28;20020;-72
2021/12/08 08:54:19;;;;;;;7.68;2.92;;;10.30;52.30;;;;;;5116272;28;20389;-72
2021/12/08 08:56:53;;;;;;;7.30;3.58;;;10.30;52.30;;;;;;5114878;28;20047;-72
2021/12/08 08:59:33;;;;;;;5.80;2.53;;;10.30;52.40;;;;;;5116021;28;20096;-71
2021/12/08 09:02:04;;;;;;;5.72;2.85;;;10.30;52.50;;;;;;5114734;28;20039;-71
2021/12/08 09:04:34;;;;;;;5.18;2.63;;;10.40;52.70;;;;;;5116558;28;20532;-71
2021/12/08 09:07:05;;;;;;;7.30;3.08;;;10.40;52.60;;;;;;5116092;28;20016;-72
2021/12/08 09:09:38;;;;;;;7.20;2.85;;;10.40;52.60;;;;;;5116247;28;20092;-72
2021/12/08 09:12:13;;;;;;;6.10;2.78;;;10.40;52.80;;;;;;5115047;28;20027;-74
2021/12/08 09:14:53;;;;;;;6.28;3.05;;;10.50;53.10;;;;;;5115700;28;20027;-72
2021/12/08 09:17:47;;;;;;;5.38;2.70;;;10.50;53.30;;;;;;5115562;28;20024;-71
2021/12/08 09:20:30;;;;;;;7.20;2.70;;;10.60;53.90;;;;;;5086473;28;20043;-70
2021/12/08 09:23:05;;;;;;;8.20;3.50;;;10.60;54.10;;;;;;5116025;28;20042;-72
2021/12/08 09:26:00;;;;;;;8.35;3.50;;;10.70;54.50;;;;;;5115960;28;20027;-72
2021/12/08 09:28:34;;;;;;;6.85;3.05;;;10.70;54.90;;;;;;5115426;27;20046;-71
2021/12/08 09:31:05;;;;;;;7.13;3.58;;;10.80;55.10;;;;;;5115436;28;20073;-71
2021/12/08 09:33:39;;;;;;;5.28;3.17;;;10.80;55.30;;;;;;5113827;28;20027;-72
2021/12/08 09:36:15;;;;;;;9.60;3.42;;;10.90;55.40;;;;;;5114273;28;20023;-71
2021/12/08 09:38:52;;;;;;;7.35;3.38;;;10.90;55.60;;;;;;5115199;28;20098;-72
2021/12/08 09:41:28;;;;;;;8.32;3.33;;;11.00;57.10;;;;;;5115523;28;20448;-70
2021/12/08 09:44:07;;;;;;;9.77;3.47;;;11.00;56.20;;;;;;5115405;28;20039;-71
2021/12/08 09:46:47;;;;;;;12.65;6.20;;;11.00;56.50;;;;;;5115237;28;20034;-71
2021/12/08 09:49:16;;;;;;;7.13;3.40;;;11.10;57.30;;;;;;5115000;28;20031;-72
2021/12/08 09:51:44;;;;;;;11.30;4.13;;;11.10;56.90;;;;;;5113399;28;20027;-71
2021/12/08 09:54:10;;;;;;;10.10;4.00;;;11.20;58.50;;;;;;5114082;28;20460;-72
2021/12/08 09:56:36;;;;;;;7.90;3.67;;;11.20;58.30;;;;;;5113578;28;20099;-71
2021/12/08 09:59:04;;;;;;;5.90;2.83;;;11.20;58.60;;;;;;5114635;28;20188;-71
2021/12/08 10:01:32;;;;;;;9.95;3.38;;;11.30;59.40;;;;;;5114865;28;20059;-72
2021/12/08 10:03:59;;;;;;;7.07;2.70;;;11.40;60.90;;;;;;5114694;27;20024;-71
2021/12/08 10:06:25;;;;;;;5.43;2.40;;;11.70;64.30;;;;;;5114920;28;20036;-71
2021/12/08 10:08:57;;;;;;;10.35;2.50;;;12.00;65.30;;;;;;5113285;28;20491;-72
2021/12/08 10:11:24;;;;;;;6.55;3.33;;;12.30;67.00;;;;;;5114578;28;20119;-72
2021/12/08 10:13:50;;;;;;;7.15;2.13;;;12.60;68.90;;;;;;5113251;28;20032;-72
2021/12/08 10:16:16;;;;;;;8.18;2.28;;;12.90;68.90;;;;;;5114481;28;20054;-72
2021/12/08 10:18:43;;;;;;;9.15;2.60;;;13.10;69.50;;;;;;5114419;28;20040;-73
2021/12/08 10:21:10;;;;;;;9.45;2.05;;;13.20;69.80;;;;;;5114384;28;20024;-73
2021/12/08 10:23:39;;;;;;;10.00;2.10;;;13.30;70.00;;;;;;5114448;28;20068;-72
2021/12/08 10:26:08;;;;;;;9.20;2.30;;;13.40;69.40;;;;;;5114441;28;20027;-73
2021/12/08 10:28:49;;;;;;;11.05;2.83;;;13.40;70.10;;;;;;5113623;28;20187;-71
2021/12/08 10:31:17;;;;;;;8.77;2.50;;;13.40;69.90;;;;;;5114459;28;20016;-72
2021/12/08 10:36:50;;;;;;;6.05;2.60;;;13.50;70.70;;;;;;5114206;28;20023;-72
2021/12/08 10:39:47;;;;;;;8.65;2.30;;;13.60;71.50;;;;;;5110456;28;20355;-72
2021/12/08 10:42:23;;;;;;;6.60;2.10;;;13.60;71.00;;;;;;5114136;28;20026;-73
2021/12/08 10:45:11;;;;;;;10.02;3.30;;;13.50;70.70;;;;;;5112570;28;20031;-72
2021/12/08 10:47:44;;;;;;;9.98;2.13;;;13.50;70.50;;;;;;5113486;28;20069;-72
2021/12/08 10:55:55;;;;;;;7.88;2.20;;;13.50;72.90;;;;;;5113384;28;20088;-72
2021/12/08 10:58:24;;;;;;;12.20;4.10;;;13.50;73.10;;;;;;5113613;28;20047;-72
2021/12/08 11:00:51;;;;;;;14.82;5.22;;;13.50;73.30;;;;;;5112307;28;20030;-71
2021/12/08 11:03:17;;;;;;;9.75;2.40;;;13.50;74.10;;;;;;5113693;28;20072;-71
2021/12/08 11:05:49;;;;;;;9.80;2.67;;;13.50;74.50;;;;;;5112628;28;20016;-70
2021/12/08 11:08:19;;;;;;;9.40;2.40;;;13.50;75.10;;;;;;5113497;28;20053;-71
2021/12/08 11:10:55;;;;;;;14.20;3.17;;;13.40;75.20;;;;;;5113646;28;20107;-72
2021/12/08 11:13:29;;;;;;;8.30;1.98;;;13.40;75.50;;;;;;5113544;28;20032;-72
2021/12/08 11:16:10;;;;;;;8.98;2.40;;;13.40;75.80;;;;;;5113342;28;20085;-72
2021/12/08 11:18:39;;;;;;;8.55;2.20;;;13.40;76.40;;;;;;5113431;28;20452;-72
2021/12/08 11:21:21;;;;;;;10.38;2.42;;;13.50;77.10;;;;;;5112114;28;20047;-72
2021/12/08 11:23:50;;;;;;;8.38;2.05;;;13.50;76.90;;;;;;5113301;28;20016;-72
2021/12/08 11:26:15;;;;;;;8.70;2.30;;;13.50;77.10;;;;;;5111692;28;20023;-70
2021/12/08 11:28:42;;;;;;;10.00;2.38;;;13.50;77.30;;;;;;5112564;28;20413;-72
2021/12/08 11:31:14;;;;;;;10.27;2.30;;;13.60;77.70;;;;;;5113080;28;20405;-72
2021/12/08 11:33:48;;;;;;;11.68;2.70;;;13.60;77.70;;;;;;5113488;28;20194;-72
2021/12/08 11:36:16;;;;;;;8.25;2.35;;;13.60;77.90;;;;;;5113159;28;20016;-71
2021/12/08 11:38:44;;;;;;;7.93;2.67;;;13.70;78.50;;;;;;5094435;28;20031;-72
2021/12/08 11:41:34;;;;;;;9.43;2.33;;;13.60;78.30;;;;;;5113600;28;20034;-72
2021/12/08 11:44:03;;;;;;;9.00;2.92;;;13.70;79.90;;;;;;5112748;28;20035;-71
2021/12/08 11:46:34;;;;;;;7.75;2.58;;;13.60;80.00;;;;;;5113047;28;20091;-70
2021/12/08 11:49:04;;;;;;;6.90;2.30;;;13.50;80.40;;;;;;5095824;22;20111;-71
2021/12/08 11:51:32;;;;;;;11.90;2.53;;;13.50;81.40;;;;;;5052410;28;20023;-71
2021/12/08 11:53:58;;;;;;;7.00;2.47;;;13.50;82.00;;;;;;5034378;28;20029;-70
2021/12/08 11:56:40;;;;;;;7.28;3.17;;;13.40;81.40;;;;;;5052656;28;20025;-73
2021/12/08 11:59:09;;;;;;;8.35;3.60;;;13.30;78.10;;;;;;5052181;28;20017;-71
2021/12/08 12:01:37;;;;;;;7.60;3.40;;;13.10;76.70;;;;;;5052006;28;20048;-72
2021/12/08 12:04:05;;;;;;;7.97;3.20;;;12.90;77.00;;;;;;5052247;28;20500;-72
2021/12/08 12:06:33;;;;;;;10.93;3.40;;;12.90;80.00;;;;;;5052324;28;20085;-72
2021/12/08 12:09:00;;;;;;;9.73;2.58;;;12.90;84.00;;;;;;5052030;28;20029;-73
2021/12/08 12:11:27;;;;;;;9.90;3.15;;;12.90;87.20;;;;;;5051938;28;20148;-72
2021/12/08 12:13:57;;;;;;;8.07;2.70;;;13.00;87.20;;;;;;5052050;28;20079;-69
2021/12/08 12:16:24;;;;;;;7.40;2.47;;;13.00;87.00;;;;;;5034190;28;20029;-72
2021/12/08 12:18:55;;;;;;;5.97;2.40;;;13.10;88.70;;;;;;5052188;28;20040;-72
2021/12/08 12:21:39;;;;;;;9.68;3.00;;;13.10;89.70;;;;;;5052072;28;20123;-74
2021/12/08 12:24:04;;;;;;;;;;;13.10;90.00;;;;;;5052479;28;20049;-72
2021/12/08 12:26:39;;;;;;;9.38;3.45;;;13.20;91.70;;;;;;5052250;28;19905;-71
2021/12/08 12:29:31;;;;;;;9.00;3.20;;;13.10;90.40;;;;;;5051982;28;20071;-73
2021/12/08 12:32:43;;;;;;;6.55;2.80;;;13.10;90.60;;;;;;5052599;28;20082;-73
2021/12/08 12:35:29;;;;;;;7.53;3.30;;;13.10;91.00;;;;;;5051828;28;20478;-73
2021/12/08 12:38:11;;;;;;;8.57;3.05;;;13.00;90.90;;;;;;5051924;28;20020;-75
2021/12/08 12:40:47;;;;;;;8.02;3.30;;;12.90;91.00;;;;;;5034147;28;20029;-75
2021/12/08 12:43:27;;;;;;;8.18;2.83;;;12.90;90.90;;;;;;5052648;28;20029;-73
2021/12/08 12:46:09;;;;;;;6.43;2.70;;;12.90;91.20;;;;;;5051969;28;20559;-72
2021/12/08 12:48:37;;;;;;;8.90;3.20;;;12.90;91.80;;;;;;5051871;28;20056;-75
2021/12/08 12:51:03;;;;;;;9.55;3.33;;;12.90;92.50;;;;;;5053534;28;20025;-74
2021/12/08 12:53:39;;;;;;;6.45;2.80;;;12.80;92.30;;;;;;5037558;28;20048;-73
2021/12/08 12:56:11;;;;;;;9.65;3.80;;;12.90;92.40;;;;;;5055866;28;20493;-75
2021/12/08 12:58:43;;;;;;;7.22;3.00;;;12.90;92.40;;;;;;5055561;28;20359;-74
2021/12/08 13:01:12;;;;;;;7.25;3.15;;;12.80;92.60;;;;;;5055720;28;20021;-76
2021/12/08 13:03:44;;;;;;;9.68;3.10;;;12.80;93.90;;;;;;5055557;28;20064;-74
2021/12/08 13:06:12;;;;;;;9.32;3.33;;;12.80;93.90;;;;;;5037454;28;20143;-75
2021/12/08 13:08:48;;;;;;;6.90;3.35;;;12.80;94.40;;;;;;5055187;28;20041;-74
2021/12/08 13:11:33;;;;;;;8.27;2.95;;;12.80;94.90;;;;;;5055438;28;20101;-77
2021/12/08 13:13:59;;;;;;;7.70;2.85;;;12.80;95.00;;;;;;5055775;28;20107;-74
2021/12/08 13:16:35;;;;;;;7.32;3.50;;;12.80;95.90;;;;;;5055320;28;20100;-73
2021/12/08 13:19:05;;;;;;;6.70;3.40;;;12.70;95.70;;;;;;5054777;28;20032;-74
2021/12/08 13:21:47;;;;;;;9.05;3.85;;;12.70;95.70;;;;;;5055134;28;20575;-75
2021/12/08 13:24:35;;;;;;;6.80;3.85;;;12.60;95.50;;;;;;5054876;28;20029;-74
2021/12/08 13:27:05;;;;;;;9.43;4.03;;;12.40;94.90;;;;;;5054763;28;20037;-76
2021/12/08 13:29:33;;;;;;;6.82;3.60;;;12.20;94.70;;;;;;5054802;28;20025;-71
2021/12/08 13:32:09;;;;;;;7.70;3.67;;;12.10;95.00;;;;;;5054863;28;20382;-72
2021/12/08 13:34:36;;;;;;;8.25;3.50;;;11.90;94.90;;;;;;5055436;28;20508;-74
2021/12/08 13:37:20;;;;;;;6.55;3.80;;;11.80;95.00;;;;;;5054723;28;20009;-73
2021/12/08 13:39:49;;;;;;;7.05;3.58;;;11.70;95.10;;;;;;5054760;28;20385;-72
2021/12/08 13:42:30;;;;;;;6.78;3.47;;;11.70;95.30;;;;;;5054921;28;20147;-71
2021/12/08 13:45:00;;;;;;;7.07;3.97;;;11.70;95.20;;;;;;5054665;28;20063;-72
2021/12/08 13:47:46;;;;;;;6.65;3.92;;;11.60;95.00;;;;;;5054545;28;20103;-71
2021/12/08 13:50:22;;;;;;;9.02;4.40;;;11.50;95.20;;;;;;5054774;28;20083;-72
2021/12/08 13:52:54;;;;;;;7.38;3.97;;;11.50;94.70;;;;;;5054646;28;20025;-74
2021/12/08 13:55:23;;;;;;;6.50;4.15;;;11.40;95.10;;;;;;5054778;28;20048;-74
2021/12/08 13:58:04;;;;;;;6.85;4.22;;;11.30;95.20;;;;;;5054811;28;20017;-71